Time;durP1;ratioP1;P1;durP2;ratioP2;P2;SDS_P1;SDS_P2;PMS_P1;PMS_P2;Temp;Humidity;BMP_temperature;BMP_pressure;BME280_temperature;BME280_humidity;BME280_pressure;Samples;Min_cycle;Max_cycle;Signal;HPM_P1;HPM_P2
2021/12/17 00:03:49;;;;;;;44.40;23.58;;;;;;;;;;5112606;28;20382;-80
2021/12/17 00:06:42;;;;;;;42.22;23.02;;;;;;;;;;5113444;28;20028;-79
2021/12/17 00:09:14;;;;;;;46.40;23.65;;;;;;;;;;5112308;28;20043;-79
2021/12/17 00:11:41;;;;;;;44.03;23.00;;;;;;;;;;5113249;28;20089;-80
2021/12/17 00:14:24;;;;;;;41.75;21.73;;;;;;;;;;5113300;28;20056;-79
2021/12/17 00:17:02;;;;;;;40.45;21.48;;;;;;;;;;5113159;28;20040;-79
2021/12/17 00:19:57;;;;;;;43.28;22.30;;;;;;;;;;5113048;28;20082;-79
2021/12/17 00:53:27;;;;;;;43.58;22.52;;;;;;;;;;5114941;28;20058;-79
2021/12/17 00:55:55;;;;;;;44.97;23.05;;;;;;;;;;5116991;28;20067;-79
2021/12/17 00:58:28;;;;;;;47.13;23.60;;;;;;;;;;5115454;28;20126;-79
2021/12/17 01:00:58;;;;;;;46.72;23.90;;;;;;;;;;5116530;28;20039;-80
2021/12/17 01:03:26;;;;;;;43.85;21.65;;;;;;;;;;5116607;28;20513;-80
2021/12/17 01:06:03;;;;;;;47.53;24.15;;;;;;;;;;5115723;28;20060;-79
2021/12/17 01:08:57;;;;;;;44.05;23.02;;;;;;;;;;5114918;28;20039;-79
2021/12/17 01:11:26;;;;;;;44.70;22.15;;;;;;;;;;5116308;28;20031;-79
2021/12/17 01:14:08;;;;;;;46.67;23.42;;;;;;;;;;5116131;28;20043;-79
2021/12/17 01:42:46;;;;;;;47.33;24.05;;;;;;;;;;5093583;28;20054;-79
2021/12/17 01:45:14;;;;;;;47.75;24.05;;;;;;;;;;5093429;28;20515;-79
2021/12/17 01:47:47;;;;;;;45.58;23.20;;;;;;;;;;5093639;28;20074;-79
2021/12/17 02:01:21;;;;;;;50.92;24.90;;;;;;;;;;5093400;28;20506;-79
2021/12/17 02:03:54;;;;;;;50.30;25.88;;;;;;;;;;5093752;28;20097;-79
2021/12/17 02:06:24;;;;;;;52.38;25.13;;;;;;;;;;5093309;28;20075;-79
2021/12/17 02:08:54;;;;;;;50.88;24.95;;;;;;;;;;5093175;28;20135;-79
2021/12/17 02:20:21;;;;;;;52.53;25.83;;;;;;;;;;5093126;28;20135;-79
2021/12/17 02:23:20;;;;;;;54.50;25.95;;;;;;;;;;5101226;28;20499;-79
2021/12/17 02:28:48;;;;;;;52.65;25.58;;;;;;;;;;5113338;28;20043;-79
2021/12/17 02:31:42;;;;;;;51.72;25.85;;;;;;;;;;5113146;28;20093;-79
2021/12/17 02:36:53;;;;;;;53.55;26.35;;;;;;;;;;5113039;28;20104;-79
2021/12/17 02:45:54;;;;;;;54.17;25.75;;;;;;;;;;5112931;28;20043;-79
2021/12/17 02:48:23;;;;;;;50.55;25.58;;;;;;;;;;5112222;28;20078;-79
2021/12/17 02:50:55;;;;;;;51.75;24.85;;;;;;;;;;5112811;28;20054;-78
2021/12/17 02:53:29;;;;;;;49.47;24.38;;;;;;;;;;5112520;28;20138;-79
2021/12/17 02:56:02;;;;;;;53.60;25.73;;;;;;;;;;5114127;28;20459;-79
2021/12/17 02:58:32;;;;;;;53.75;26.27;;;;;;;;;;5114430;28;20070;-79
2021/12/17 03:01:07;;;;;;;49.30;24.67;;;;;;;;;;5114004;28;20141;-77
2021/12/17 03:03:39;;;;;;;48.80;24.25;;;;;;;;;;5112634;28;20126;-76
2021/12/17 03:06:08;;;;;;;51.53;25.95;;;;;;;;;;5112488;28;20617;-77
2021/12/17 03:11:55;;;;;;;51.72;26.13;;;;;;;;;;5113903;28;20126;-77
2021/12/17 03:14:25;;;;;;;48.22;23.92;;;;;;;;;;5112054;28;20071;-77
2021/12/17 03:17:09;;;;;;;48.65;25.65;;;;;;;;;;5112721;28;20043;-77
2021/12/17 03:25:46;;;;;;;48.47;25.23;;;;;;;;;;5112159;28;20050;-77
2021/12/17 03:28:14;;;;;;;48.08;24.33;;;;;;;;;;5112272;28;20093;-77
2021/12/17 03:30:46;;;;;;;48.45;26.02;;;;;;;;;;5111898;28;20497;-76
2021/12/17 03:33:18;;;;;;;48.05;25.05;;;;;;;;;;5112248;28;20054;-79
2021/12/17 03:35:46;;;;;;;46.08;23.20;;;;;;;;;;5112270;28;20395;-79
2021/12/17 03:38:14;;;;;;;48.28;24.10;;;;;;;;;;5112185;28;20447;-79
2021/12/17 03:40:46;;;;;;;44.67;23.38;;;;;;;;;;5111932;28;20043;-79
2021/12/17 03:43:37;;;;;;;45.80;23.73;;;;;;;;;;5112573;28;20048;-78
2021/12/17 03:46:30;;;;;;;46.72;24.08;;;;;;;;;;5111765;28;20093;-80
2021/12/17 03:49:28;;;;;;;45.53;22.70;;;;;;;;;;5112323;28;20090;-79
2021/12/17 03:52:06;;;;;;;43.90;22.65;;;;;;;;;;5108920;28;20070;-78
2021/12/17 03:54:49;;;;;;;43.10;22.85;;;;;;;;;;5110591;28;20052;-78
2021/12/17 03:57:18;;;;;;;47.00;22.08;;;;;;;;;;5112314;28;20104;-77
2021/12/17 03:59:58;;;;;;;44.38;22.55;;;;;;;;;;5111976;28;20040;-77
2021/12/17 04:02:31;;;;;;;45.30;23.17;;;;;;;;;;5112236;28;20052;-77
2021/12/17 04:05:01;;;;;;;38.38;21.48;;;;;;;;;;5114728;28;20047;-77
2021/12/17 04:07:38;;;;;;;40.67;21.60;;;;;;;;;;5117568;27;20494;-77
2021/12/17 04:10:42;;;;;;;43.63;22.45;;;;;;;;;;5117390;28;20112;-77
2021/12/17 04:13:37;;;;;;;39.15;21.90;;;;;;;;;;5116128;28;20040;-77
2021/12/17 04:16:21;;;;;;;;;;;;;;;;;;5116480;28;20139;-78
2021/12/17 04:18:49;;;;;;;37.83;21.42;;;;;;;;;;5115915;28;19927;-78
2021/12/17 04:21:29;;;;;;;39.72;22.35;;;;;;;;;;5117423;28;20398;-78
2021/12/17 04:23:57;;;;;;;41.45;22.08;;;;;;;;;;5116928;28;20048;-77
2021/12/17 04:26:27;;;;;;;41.17;21.98;;;;;;;;;;5115569;28;20101;-77
2021/12/17 04:29:06;;;;;;;42.95;21.67;;;;;;;;;;5115573;28;20040;-77
2021/12/17 04:31:40;;;;;;;39.95;21.45;;;;;;;;;;5115559;28;20066;-76
2021/12/17 04:34:08;;;;;;;39.67;20.88;;;;;;;;;;5115692;28;20040;-77
2021/12/17 04:36:38;;;;;;;39.65;21.40;;;;;;;;;;5132671;27;20379;-77
2021/12/17 04:39:22;;;;;;;41.38;21.23;;;;;;;;;;5115571;28;20043;-77
2021/12/17 04:42:03;;;;;;;41.57;20.53;;;;;;;;;;5115340;28;20138;-78
2021/12/17 04:44:36;;;;;;;37.38;20.00;;;;;;;;;;5115268;28;20689;-77
2021/12/17 04:58:18;;;;;;;37.60;19.67;;;;;;;;;;5115095;28;20043;-78
2021/12/17 05:00:45;;;;;;;33.83;19.33;;;;;;;;;;5115098;28;20048;-77
2021/12/17 05:03:23;;;;;;;40.75;20.90;;;;;;;;;;5114931;28;20078;-77
2021/12/17 05:05:52;;;;;;;39.60;20.02;;;;;;;;;;5114831;28;20112;-78
2021/12/17 05:08:37;;;;;;;39.75;20.88;;;;;;;;;;5114916;28;20045;-77
2021/12/17 05:18:12;;;;;;;34.10;19.70;;;;;;;;;;5115020;28;20044;-77
2021/12/17 05:19:52;;;;;;;36.15;20.30;;;;;;;;;;5114553;28;20553;-79
2021/12/17 05:22:23;;;;;;;36.13;19.20;;;;;;;;;;5114346;28;20139;-78
2021/12/17 05:24:54;;;;;;;34.00;19.98;;;;;;;;;;5114443;28;20044;-79
2021/12/17 05:27:48;;;;;;;34.58;18.98;;;;;;;;;;5114556;28;20043;-79
2021/12/17 05:30:17;;;;;;;37.63;18.13;;;;;;;;;;5114507;28;20051;-79
2021/12/17 05:32:47;;;;;;;37.08;18.27;;;;;;;;;;5115515;28;20066;-79
2021/12/17 05:35:17;;;;;;;32.00;17.85;;;;;;;;;;5114357;28;20138;-79
2021/12/17 05:37:50;;;;;;;31.10;18.25;;;;;;;;;;5114649;28;20456;-79
2021/12/17 05:40:18;;;;;;;34.50;18.50;;;;;;;;;;5114313;28;20043;-79
2021/12/17 05:42:54;;;;;;;30.50;17.05;;;;;;;;;;5131782;27;20108;-79
2021/12/17 05:45:37;;;;;;;31.67;17.35;;;;;;;;;;5114026;28;20498;-79
2021/12/17 05:48:07;;;;;;;33.55;18.55;;;;;;;;;;5114046;28;20092;-78
2021/12/17 05:50:37;;;;;;;32.45;17.23;;;;;;;;;;5113870;28;20092;-78
2021/12/17 05:53:08;;;;;;;31.35;18.52;;;;;;;;;;5113935;28;20040;-78
2021/12/17 05:55:39;;;;;;;32.55;18.17;;;;;;;;;;5113997;28;20468;-79
2021/12/17 05:58:08;;;;;;;33.58;18.02;;;;;;;;;;5113995;28;20132;-78
2021/12/17 06:00:39;;;;;;;34.38;19.65;;;;;;;;;;5121268;27;20544;-79
2021/12/17 06:03:27;;;;;;;30.88;17.85;;;;;;;;;;5113895;28;20520;-78
2021/12/17 06:06:06;;;;;;;34.40;17.40;;;;;;;;;;5113868;28;20043;-78
2021/12/17 06:08:37;;;;;;;33.35;18.48;;;;;;;;;;5115088;28;20551;-77
2021/12/17 06:11:07;;;;;;;37.70;18.70;;;;;;;;;;5113686;28;20035;-77
2021/12/17 06:13:36;;;;;;;28.60;17.27;;;;;;;;;;5113556;28;20036;-77
2021/12/17 06:16:07;;;;;;;34.53;18.73;;;;;;;;;;5113670;28;20055;-78
2021/12/17 06:18:37;;;;;;;32.95;18.48;;;;;;;;;;5112490;28;20077;-78
2021/12/17 06:21:06;;;;;;;35.72;17.85;;;;;;;;;;5113930;28;20036;-78
2021/12/17 06:23:37;;;;;;;32.72;19.08;;;;;;;;;;5113297;28;20505;-77
2021/12/17 06:26:10;;;;;;;30.52;16.73;;;;;;;;;;5111740;28;20036;-77
2021/12/17 06:28:43;;;;;;;29.27;17.38;;;;;;;;;;5113618;28;20071;-77
2021/12/17 06:31:36;;;;;;;31.42;18.05;;;;;;;;;;5114667;28;20059;-78
2021/12/17 06:34:30;;;;;;;31.17;17.63;;;;;;;;;;5112965;28;20075;-78
2021/12/17 06:37:01;;;;;;;30.65;16.75;;;;;;;;;;5112839;28;20150;-77
2021/12/17 06:39:58;;;;;;;29.73;17.05;;;;;;;;;;5095990;28;20044;-77
2021/12/17 06:42:32;;;;;;;28.27;17.50;;;;;;;;;;5113139;28;20108;-77
2021/12/17 06:45:06;;;;;;;31.95;17.85;;;;;;;;;;5113433;28;20094;-78
2021/12/17 06:47:37;;;;;;;24.92;15.50;;;;;;;;;;5112715;28;20043;-77
2021/12/17 06:56:59;;;;;;;30.30;16.92;;;;;;;;;;5113274;28;19919;-78
2021/12/17 06:59:32;;;;;;;29.23;16.85;;;;;;;;;;5113585;28;20164;-78
2021/12/17 07:11:53;;;;;;;29.88;18.23;;;;;;;;;;5111106;28;20039;-79
2021/12/17 07:22:48;;;;;;;29.48;17.95;;;;;;;;;;5112406;28;20040;-78
2021/12/17 07:30:34;;;;;;;30.02;17.33;;;;;;;;;;5112567;28;20036;-77
2021/12/17 07:42:42;;;;;;;29.65;16.70;;;;;;;;;;5129232;27;20070;-75
2021/12/17 07:45:24;;;;;;;28.42;16.55;;;;;;;;;;5134378;27;20405;-77
2021/12/17 07:48:26;;;;;;;26.98;16.92;;;;;;;;;;5112313;27;20457;-77
2021/12/17 07:50:56;;;;;;;34.33;16.73;;;;;;;;;;5136676;27;20071;-78
2021/12/17 07:53:33;;;;;;;26.70;16.15;;;;;;;;;;5136607;27;20043;-77
2021/12/17 07:56:07;;;;;;;26.02;14.77;;;;;;;;;;5136540;27;20496;-78
2021/12/17 07:58:38;;;;;;;25.35;15.20;;;;;;;;;;5136813;27;20069;-78
2021/12/17 08:01:10;;;;;;;27.73;15.57;;;;;;;;;;5137604;27;20073;-77
2021/12/17 08:03:44;;;;;;;26.35;15.57;;;;;;;;;;5136768;27;20039;-77
2021/12/17 08:06:53;;;;;;;27.02;15.85;;;;;;;;;;5129693;27;20087;-77
2021/12/17 08:09:25;;;;;;;27.10;16.13;;;;;;;;;;5136576;27;20097;-77
2021/12/17 08:11:57;;;;;;;26.08;15.48;;;;;;;;;;5136662;27;20070;-78
2021/12/17 08:14:37;;;;;;;22.35;13.98;;;;;;;;;;5136386;27;20137;-77
2021/12/17 08:25:48;;;;;;;22.85;13.98;;;;;;;;;;5136575;27;20043;-78
2021/12/17 08:28:22;;;;;;;25.33;14.40;;;;;;;;;;5136074;27;20405;-77
2021/12/17 08:30:51;;;;;;;26.05;14.43;;;;;;;;;;5136534;27;20047;-78
2021/12/17 08:33:29;;;;;;;28.50;14.50;;;;;;;;;;5135923;27;20096;-77
2021/12/17 08:35:58;;;;;;;23.15;14.30;;;;;;;;;;5136126;27;20133;-78
2021/12/17 08:38:34;;;;;;;23.77;14.45;;;;;;;;;;5135951;27;20449;-77
2021/12/17 08:41:13;;;;;;;20.80;13.68;;;;;;;;;;5136035;27;20051;-78
2021/12/17 08:43:47;;;;;;;23.67;14.05;;;;;;;;;;5135998;27;20039;-78
2021/12/17 08:46:14;;;;;;;23.33;14.80;;;;;;;;;;5135774;27;20047;-77
2021/12/17 08:49:05;;;;;;;26.98;16.10;;;;;;;;;;5135302;27;20043;-78
2021/12/17 08:51:41;;;;;;;20.67;13.20;;;;;;;;;;5135543;27;20047;-78
2021/12/17 08:54:14;;;;;;;22.83;14.23;;;;;;;;;;5137451;27;20041;-77
2021/12/17 08:56:47;;;;;;;20.58;13.25;;;;;;;;;;5135803;27;20076;-77
2021/12/17 08:59:18;;;;;;;23.52;14.02;;;;;;;;;;5135616;27;20043;-78
2021/12/17 09:02:07;;;;;;;20.33;13.82;;;;;;;;;;5137041;27;20054;-77
2021/12/17 09:04:44;;;;;;;27.98;13.43;;;;;;;;;;5135796;27;20151;-78
2021/12/17 09:07:15;;;;;;;30.15;14.35;;;;;;;;;;5135423;27;20043;-78
2021/12/17 09:10:09;;;;;;;20.70;13.13;;;;;;;;;;5136764;27;20146;-78
2021/12/17 09:12:41;;;;;;;20.58;11.98;;;;;;;;;;5135830;27;20043;-78
2021/12/17 09:15:13;;;;;;;21.02;12.70;;;;;;;;;;5135243;27;20039;-78
2021/12/17 09:18:00;;;;;;;25.42;12.40;;;;;;;;;;5137083;27;20054;-78
2021/12/17 09:20:30;;;;;;;19.80;12.43;;;;;;;;;;5135341;27;20088;-78
2021/12/17 09:22:58;;;;;;;19.70;12.27;;;;;;;;;;5135204;27;20082;-78
2021/12/17 09:25:30;;;;;;;24.75;13.02;;;;;;;;;;5135066;27;20134;-78
2021/12/17 09:28:04;;;;;;;18.35;11.93;;;;;;;;;;5135048;27;20044;-78
2021/12/17 09:30:44;;;;;;;20.05;12.98;;;;;;;;;;5134936;27;20088;-78
2021/12/17 09:33:17;;;;;;;19.05;11.88;;;;;;;;;;5136970;27;20035;-78
2021/12/17 09:35:45;;;;;;;20.42;11.57;;;;;;;;;;5135296;27;20070;-78
2021/12/17 09:38:20;;;;;;;21.27;12.65;;;;;;;;;;5137208;27;20051;-78
2021/12/17 09:40:53;;;;;;;19.35;12.05;;;;;;;;;;5136649;27;20595;-79
2021/12/17 09:43:22;;;;;;;18.73;12.68;;;;;;;;;;5135093;27;20042;-79
2021/12/17 09:45:50;;;;;;;18.10;11.80;;;;;;;;;;5134522;27;20035;-79
2021/12/17 09:48:22;;;;;;;26.08;13.43;;;;;;;;;;5135893;27;20473;-79
2021/12/17 09:50:52;;;;;;;22.75;13.45;;;;;;;;;;5134721;27;20443;-79
2021/12/17 09:53:21;;;;;;;24.73;15.02;;;;;;;;;;5134650;27;20088;-79
2021/12/17 09:55:54;;;;;;;27.52;16.75;;;;;;;;;;5136106;27;20041;-78
2021/12/17 09:58:21;;;;;;;25.40;15.27;;;;;;;;;;5135052;27;20043;-79
2021/12/17 10:00:49;;;;;;;28.20;16.48;;;;;;;;;;5135180;27;20473;-79
2021/12/17 10:03:21;;;;;;;24.45;15.02;;;;;;;;;;5116865;27;20421;-79
2021/12/17 10:05:49;;;;;;;27.60;15.43;;;;;;;;;;5135914;27;20088;-79
2021/12/17 10:08:20;;;;;;;22.38;13.55;;;;;;;;;;5134160;27;20043;-79
2021/12/17 10:11:00;;;;;;;24.25;14.18;;;;;;;;;;5135751;27;20142;-79
2021/12/17 10:13:36;;;;;;;22.50;12.80;;;;;;;;;;5135890;27;20554;-79
2021/12/17 10:16:07;;;;;;;25.33;15.63;;;;;;;;;;5134418;27;20112;-79
2021/12/17 10:18:38;;;;;;;22.85;14.68;;;;;;;;;;5135659;27;20126;-79
2021/12/17 10:21:18;;;;;;;23.75;14.23;;;;;;;;;;5134679;27;20043;-79
2021/12/17 10:23:47;;;;;;;26.88;15.73;;;;;;;;;;5135275;27;20082;-79
2021/12/17 10:26:17;;;;;;;27.63;17.13;;;;;;;;;;5135215;27;20515;-79
2021/12/17 10:29:04;;;;;;;26.98;17.17;;;;;;;;;;5135944;27;20063;-79
2021/12/17 10:31:36;;;;;;;28.52;18.05;;;;;;;;;;5135407;27;20058;-79
2021/12/17 10:34:05;;;;;;;25.67;16.67;;;;;;;;;;5133645;27;20049;-78
2021/12/17 10:36:42;;;;;;;22.92;16.30;;;;;;;;;;5134926;27;20038;-79
2021/12/17 10:39:23;;;;;;;23.85;16.05;;;;;;;;;;5135394;27;20485;-79
2021/12/17 10:41:52;;;;;;;26.85;15.98;;;;;;;;;;5133807;27;20092;-78
2021/12/17 10:44:21;;;;;;;25.38;15.65;;;;;;;;;;5134856;27;20035;-77
2021/12/17 10:47:37;;;;;;;24.67;16.13;;;;;;;;;;5133491;27;20061;-79
2021/12/17 10:49:57;;;;;;;22.55;16.30;;;;;;;;;;5131590;27;20047;-79
2021/12/17 10:52:41;;;;;;;23.80;17.10;;;;;;;;;;5134555;27;20049;-79
2021/12/17 10:55:13;;;;;;;26.65;16.77;;;;;;;;;;5134763;27;20096;-79
2021/12/17 10:57:44;;;;;;;25.00;17.13;;;;;;;;;;5116899;27;20108;-79
2021/12/17 11:00:20;;;;;;;27.20;18.58;;;;;;;;;;5112659;28;20044;-79
2021/12/17 11:02:54;;;;;;;32.28;20.08;;;;;;;;;;5114317;28;20443;-79
2021/12/17 11:05:33;;;;;;;32.58;19.35;;;;;;;;;;5112771;28;20047;-79
2021/12/17 11:08:01;;;;;;;26.73;18.23;;;;;;;;;;5095834;28;20138;-79
2021/12/17 11:10:32;;;;;;;25.58;17.23;;;;;;;;;;5114278;28;20486;-79
2021/12/17 11:13:01;;;;;;;27.45;18.25;;;;;;;;;;5113474;28;20032;-79
2021/12/17 11:15:35;;;;;;;25.63;17.30;;;;;;;;;;5113820;28;20554;-78
2021/12/17 11:18:08;;;;;;;30.00;19.60;;;;;;;;;;5112000;28;20063;-79
2021/12/17 11:20:40;;;;;;;31.48;19.23;;;;;;;;;;5112383;28;20092;-79
2021/12/17 11:23:35;;;;;;;32.20;21.70;;;;;;;;;;5112320;28;20043;-78
2021/12/17 11:26:28;;;;;;;32.25;19.00;;;;;;;;;;5112636;28;20075;-78
2021/12/17 11:29:00;;;;;;;29.85;18.58;;;;;;;;;;5112275;28;20070;-78
2021/12/17 11:31:44;;;;;;;31.10;20.40;;;;;;;;;;5111963;28;20474;-78
2021/12/17 11:34:12;;;;;;;31.95;19.70;;;;;;;;;;5112411;28;20405;-78
2021/12/17 11:36:41;;;;;;;30.27;19.50;;;;;;;;;;5113535;28;20035;-79
2021/12/17 11:39:18;;;;;;;31.42;20.08;;;;;;;;;;5112390;28;20122;-78
2021/12/17 11:42:06;;;;;;;29.08;18.38;;;;;;;;;;5113502;28;20039;-79
2021/12/17 11:44:42;;;;;;;31.38;19.63;;;;;;;;;;5112046;28;20047;-78
2021/12/17 11:47:13;;;;;;;31.13;21.33;;;;;;;;;;5112014;28;20039;-78
2021/12/17 11:49:50;;;;;;;37.05;23.20;;;;;;;;;;5112285;28;20093;-79
2021/12/17 11:52:36;;;;;;;31.77;20.45;;;;;;;;;;5113650;28;20039;-78
2021/12/17 11:55:23;;;;;;;31.67;21.33;;;;;;;;;;5112009;28;20044;-78
2021/12/17 11:57:54;;;;;;;30.35;20.10;;;;;;;;;;5112126;28;20450;-78
2021/12/17 12:00:47;;;;;;;30.40;19.92;;;;;;;;;;5112205;28;20082;-80
2021/12/17 12:03:40;;;;;;;38.55;22.83;;;;;;;;;;5113520;28;20040;-79
2021/12/17 12:06:33;;;;;;;56.50;32.75;;;;;;;;;;5111874;28;20043;-80
2021/12/17 12:09:38;;;;;;;59.78;34.33;;;;;;;;;;5113280;28;20145;-80
2021/12/17 12:12:30;;;;;;;49.13;30.08;;;;;;;;;;5113380;28;20036;-80
2021/12/17 12:15:33;;;;;;;36.70;21.70;;;;;;;;;;5112009;28;20054;-79
2021/12/17 12:18:49;;;;;;;37.03;21.73;;;;;;;;;;5013931;28;20092;-80
2021/12/17 12:21:18;;;;;;;38.35;26.55;;;;;;;;;;5013889;28;20073;-79
2021/12/17 12:23:47;;;;;;;42.20;27.80;;;;;;;;;;5013295;28;20107;-79
2021/12/17 12:26:21;;;;;;;45.80;29.42;;;;;;;;;;5076771;28;20059;-79
2021/12/17 12:28:54;;;;;;;39.22;25.35;;;;;;;;;;5116899;28;20126;-79
2021/12/17 12:31:28;;;;;;;34.60;21.77;;;;;;;;;;5115569;28;20036;-79
2021/12/17 12:34:04;;;;;;;35.80;21.88;;;;;;;;;;5098509;28;20082;-79
2021/12/17 12:36:49;;;;;;;35.72;22.15;;;;;;;;;;5115588;28;20054;-79
2021/12/17 12:39:43;;;;;;;32.03;21.23;;;;;;;;;;5115971;28;20085;-79
2021/12/17 12:42:36;;;;;;;35.65;21.58;;;;;;;;;;5115761;28;20138;-79
2021/12/17 12:45:31;;;;;;;42.00;23.05;;;;;;;;;;5116747;28;20213;-79
2021/12/17 12:48:01;;;;;;;38.58;22.67;;;;;;;;;;5116747;28;20084;-79
2021/12/17 12:50:34;;;;;;;36.47;22.35;;;;;;;;;;5115284;28;20048;-79
2021/12/17 12:53:04;;;;;;;31.75;22.70;;;;;;;;;;5117199;27;20564;-79
2021/12/17 12:55:37;;;;;;;36.17;21.67;;;;;;;;;;5116764;28;20106;-79
2021/12/17 12:58:12;;;;;;;36.35;22.90;;;;;;;;;;5115027;28;20101;-79
2021/12/17 13:00:45;;;;;;;34.97;22.63;;;;;;;;;;5116357;28;20574;-80
2021/12/17 13:03:19;;;;;;;33.20;20.63;;;;;;;;;;5098490;28;20043;-79
2021/12/17 13:05:47;;;;;;;31.65;20.45;;;;;;;;;;5116335;28;20457;-79
2021/12/17 13:08:18;;;;;;;32.40;20.42;;;;;;;;;;5116024;28;20050;-79
2021/12/17 13:10:51;;;;;;;35.40;20.38;;;;;;;;;;5098134;28;20093;-79
2021/12/17 13:17:05;;;;;;;35.13;21.73;;;;;;;;;;5116221;28;20078;-79
2021/12/17 13:24:29;;;;;;;34.38;21.33;;;;;;;;;;5116453;28;20400;-79
2021/12/17 13:27:00;;;;;;;35.78;21.48;;;;;;;;;;5116129;28;20064;-79
2021/12/17 13:29:34;;;;;;;33.30;21.30;;;;;;;;;;5114480;28;20494;-79
2021/12/17 13:32:07;;;;;;;38.13;22.48;;;;;;;;;;5114553;28;20039;-78
2021/12/17 13:34:45;;;;;;;40.90;23.45;;;;;;;;;;5116144;28;20131;-78
2021/12/17 13:37:15;;;;;;;37.38;23.45;;;;;;;;;;5114343;28;20119;-78
2021/12/17 13:39:50;;;;;;;41.47;24.48;;;;;;;;;;5114397;28;20429;-78
2021/12/17 13:42:24;;;;;;;37.45;24.70;;;;;;;;;;5115628;28;20040;-78
2021/12/17 13:44:56;;;;;;;41.57;24.23;;;;;;;;;;5115577;28;20469;-78
2021/12/17 13:47:30;;;;;;;40.63;23.33;;;;;;;;;;5113727;28;20048;-79
2021/12/17 13:49:59;;;;;;;39.33;24.08;;;;;;;;;;5113843;28;20093;-85
2021/12/17 13:52:45;;;;;;;40.95;24.45;;;;;;;;;;5114497;28;20124;-81
2021/12/17 13:55:17;;;;;;;44.65;25.25;;;;;;;;;;5114269;28;20081;-82
2021/12/17 13:57:50;;;;;;;39.38;25.23;;;;;;;;;;5115492;28;20123;-80
2021/12/17 14:00:20;;;;;;;42.00;25.60;;;;;;;;;;5115562;28;20036;-79
2021/12/17 14:02:50;;;;;;;39.33;24.92;;;;;;;;;;5115268;28;20397;-80
2021/12/17 14:05:26;;;;;;;38.20;24.10;;;;;;;;;;5114967;28;20040;-79
2021/12/17 14:07:57;;;;;;;39.83;23.85;;;;;;;;;;5093645;28;20097;-80
2021/12/17 14:10:39;;;;;;;41.55;23.48;;;;;;;;;;5094853;28;20502;-80
2021/12/17 14:13:15;;;;;;;40.88;24.00;;;;;;;;;;5095144;28;20442;-84
2021/12/17 14:16:03;;;;;;;40.83;23.95;;;;;;;;;;5098972;28;20036;-85
2021/12/17 14:18:38;;;;;;;41.15;23.85;;;;;;;;;;5076762;28;20075;-78
2021/12/17 14:21:07;;;;;;;37.65;23.10;;;;;;;;;;5093546;28;20032;-79
2021/12/17 14:23:40;;;;;;;41.42;24.52;;;;;;;;;;5094297;28;20138;-80
2021/12/17 14:26:16;;;;;;;36.72;22.52;;;;;;;;;;5094382;28;20069;-80
2021/12/17 14:29:08;;;;;;;40.30;23.88;;;;;;;;;;5093809;28;20110;-79
2021/12/17 14:31:36;;;;;;;40.72;24.73;;;;;;;;;;5094957;28;20032;-79
2021/12/17 14:34:04;;;;;;;37.38;23.75;;;;;;;;;;5095227;28;20059;-80
2021/12/17 14:36:38;;;;;;;41.72;23.60;;;;;;;;;;5100907;28;20105;-80
2021/12/17 14:39:16;;;;;;;43.22;26.42;;;;;;;;;;5094512;28;20059;-79
2021/12/17 14:41:50;;;;;;;40.47;25.73;;;;;;;;;;5092426;28;20052;-79
2021/12/17 14:47:02;;;;;;;43.85;26.88;;;;;;;;;;5092338;28;20375;-79
2021/12/17 15:03:43;;;;;;;47.75;27.45;;;;;;;;;;5094233;28;20037;-80
2021/12/17 15:06:16;;;;;;;49.00;29.25;;;;;;;;;;5092623;28;20036;-80
2021/12/17 15:08:57;;;;;;;50.28;29.30;;;;;;;;;;5094135;28;20068;-80
2021/12/17 15:11:40;;;;;;;44.25;27.35;;;;;;;;;;5093071;28;20036;-80
2021/12/17 15:14:08;;;;;;;45.92;26.30;;;;;;;;;;5092473;28;20048;-81
2021/12/17 15:17:05;;;;;;;46.20;28.60;;;;;;;;;;5094329;28;20101;-80
2021/12/17 15:20:03;;;;;;;58.30;31.58;;;;;;;;;;5092785;28;20043;-80
2021/12/17 15:22:31;;;;;;;56.65;33.33;;;;;;;;;;5089903;28;20050;-80
2021/12/17 15:25:08;;;;;;;58.92;33.42;;;;;;;;;;5092604;28;20055;-80
2021/12/17 15:37:54;;;;;;;73.22;42.85;;;;;;;;;;5094607;28;20048;-81
2021/12/17 15:44:28;;;;;;;69.38;40.92;;;;;;;;;;5094017;28;20070;-81
2021/12/17 15:47:22;;;;;;;68.72;39.08;;;;;;;;;;5092313;28;20409;-79
2021/12/17 15:50:15;;;;;;;68.97;35.83;;;;;;;;;;5091838;28;20075;-80
2021/12/17 15:52:47;;;;;;;53.60;30.55;;;;;;;;;;5092135;28;20376;-81
2021/12/17 15:55:18;;;;;;;58.20;31.67;;;;;;;;;;5093912;28;20040;-81
2021/12/17 15:57:47;;;;;;;59.13;33.95;;;;;;;;;;5092140;28;20052;-82
2021/12/17 16:00:16;;;;;;;67.28;37.33;;;;;;;;;;5097696;28;20509;-80
2021/12/17 16:02:48;;;;;;;62.97;35.92;;;;;;;;;;5102344;28;20067;-80
2021/12/17 16:05:17;;;;;;;57.88;33.30;;;;;;;;;;5102450;28;20051;-80
2021/12/17 16:07:48;;;;;;;56.42;34.20;;;;;;;;;;5099046;28;20036;-79
2021/12/17 16:11:11;;;;;;;64.05;37.40;;;;;;;;;;5099529;28;20537;-80
2021/12/17 16:21:49;;;;;;;93.18;52.08;;;;;;;;;;5096646;28;20441;-80
2021/12/17 16:24:21;;;;;;;99.80;52.47;;;;;;;;;;5097099;28;20502;-81
2021/12/17 16:26:54;;;;;;;92.97;50.72;;;;;;;;;;5095762;28;20040;-82
2021/12/17 16:29:26;;;;;;;94.22;51.97;;;;;;;;;;5095564;28;20414;-81
2021/12/17 16:31:54;;;;;;;92.53;50.65;;;;;;;;;;5096347;28;20131;-81
2021/12/17 16:34:46;;;;;;;97.18;52.42;;;;;;;;;;5095212;28;20040;-80
2021/12/17 16:37:15;;;;;;;89.47;52.22;;;;;;;;;;5096111;28;20085;-81
2021/12/17 16:39:43;;;;;;;90.47;53.45;;;;;;;;;;5113075;28;20050;-80
2021/12/17 16:42:20;;;;;;;98.85;55.10;;;;;;;;;;5113227;28;20044;-80
2021/12/17 16:45:19;;;;;;;69.72;40.88;;;;;;;;;;5094640;28;20090;-81
2021/12/17 16:48:20;;;;;;;55.90;34.95;;;;;;;;;;5095793;28;20066;-82
2021/12/17 16:51:26;;;;;;;51.55;29.42;;;;;;;;;;5096915;28;20132;-81
2021/12/17 16:54:18;;;;;;;46.53;27.95;;;;;;;;;;5095630;28;20075;-81
2021/12/17 16:57:11;;;;;;;53.67;29.90;;;;;;;;;;5096800;28;20044;-80
2021/12/17 17:00:04;;;;;;;44.83;26.33;;;;;;;;;;5095109;28;20410;-81
2021/12/17 17:02:58;;;;;;;40.30;22.88;;;;;;;;;;5096446;28;20040;-81
2021/12/17 17:05:54;;;;;;;29.33;17.58;;;;;;;;;;5095347;28;20044;-79
2021/12/17 17:08:48;;;;;;;28.55;18.63;;;;;;;;;;5097515;28;20064;-80
2021/12/17 17:11:28;;;;;;;27.63;16.35;;;;;;;;;;5095886;28;20043;-81
2021/12/17 17:14:01;;;;;;;22.20;13.18;;;;;;;;;;5106489;28;20050;-81
2021/12/17 17:16:39;;;;;;;;;;;;;;;;;;5099319;28;20110;-82
2021/12/17 17:19:07;;;;;;;14.10;8.02;;;;;;;;;;5099793;28;19919;-81
2021/12/17 17:21:40;;;;;;;13.45;7.97;;;;;;;;;;5100267;28;20032;-79
2021/12/17 17:24:32;;;;;;;10.00;6.10;;;;;;;;;;5096447;28;20078;-81
2021/12/17 17:27:25;;;;;;;6.47;4.50;;;;;;;;;;5097200;28;20051;-81
2021/12/17 17:29:53;;;;;;;6.25;3.63;;;;;;;;;;5095962;28;20471;-80
2021/12/17 17:44:08;;;;;;;6.47;3.58;;;;;;;;;;5096152;28;20024;-79
2021/12/17 17:46:36;;;;;;;6.22;3.75;;;;;;;;;;5098906;28;20490;-79
2021/12/17 17:49:20;;;;;;;5.88;3.50;;;;;;;;;;5102375;28;20032;-80
2021/12/17 17:52:13;;;;;;;4.10;2.80;;;;;;;;;;5104189;28;20071;-80
2021/12/17 17:55:07;;;;;;;4.88;3.33;;;;;;;;;;5105129;28;20059;-80
2021/12/17 17:58:02;;;;;;;4.63;3.13;;;;;;;;;;5097687;28;20044;-80
2021/12/17 18:00:35;;;;;;;3.72;2.75;;;;;;;;;;5098071;28;20043;-79
2021/12/17 18:03:05;;;;;;;6.70;4.03;;;;;;;;;;5101353;28;20032;-79
2021/12/17 18:05:37;;;;;;;6.90;4.15;;;;;;;;;;5094973;28;20071;-80
2021/12/17 18:08:10;;;;;;;9.65;4.82;;;;;;;;;;5100993;28;20063;-80
2021/12/17 18:10:48;;;;;;;6.45;4.43;;;;;;;;;;5096649;28;20040;-79
2021/12/17 18:13:19;;;;;;;8.52;5.35;;;;;;;;;;5094899;28;20059;-80
2021/12/17 18:16:12;;;;;;;7.82;5.80;;;;;;;;;;5093163;28;20411;-80
2021/12/17 18:18:44;;;;;;;9.55;5.95;;;;;;;;;;5094595;28;20047;-79
2021/12/17 18:21:11;;;;;;;12.60;7.03;;;;;;;;;;5096965;28;20505;-79
2021/12/17 18:23:40;;;;;;;14.88;10.13;;;;;;;;;;5112249;28;20047;-79
2021/12/17 18:26:08;;;;;;;15.05;9.35;;;;;;;;;;5115230;28;20414;-79
2021/12/17 18:28:41;;;;;;;21.25;12.90;;;;;;;;;;5114957;28;20050;-80
2021/12/17 18:31:36;;;;;;;20.13;11.70;;;;;;;;;;5114033;28;20493;-80
2021/12/17 18:34:04;;;;;;;20.40;12.98;;;;;;;;;;5114490;28;20051;-81
2021/12/17 18:36:38;;;;;;;20.85;13.65;;;;;;;;;;5111455;27;20564;-81
2021/12/17 18:39:13;;;;;;;28.17;15.80;;;;;;;;;;5105445;27;20040;-81
2021/12/17 18:44:05;;;;;;;24.08;15.25;;;;;;;;;;5076574;28;20552;-80
2021/12/17 18:44:38;;;;;;;21.08;13.35;;;;;;;;;;5127258;27;20048;-80
2021/12/17 18:47:08;;;;;;;21.48;13.10;;;;;;;;;;5093701;28;20067;-81
2021/12/17 18:49:44;;;;;;;24.67;15.90;;;;;;;;;;5094448;28;20043;-79
2021/12/17 18:52:13;;;;;;;29.40;17.27;;;;;;;;;;5094030;28;20047;-80
2021/12/17 18:54:44;;;;;;;25.17;16.05;;;;;;;;;;5092500;28;20044;-80
2021/12/17 18:57:16;;;;;;;31.10;18.10;;;;;;;;;;5092645;28;20097;-80
2021/12/17 18:59:52;;;;;;;29.77;19.00;;;;;;;;;;5092542;28;20044;-81